createdAt,value
2023-01-06T00:00:37.982Z,9.90
2023-01-06T00:03:05.017Z,9.90
2023-01-06T00:05:32.143Z,9.90
2023-01-06T00:07:59.429Z,9.90
2023-01-06T00:10:26.616Z,10.00
2023-01-06T00:12:53.638Z,9.90
2023-01-06T00:15:21.054Z,10.00
2023-01-06T00:17:47.786Z,10.00
2023-01-06T00:20:14.540Z,10.00
2023-01-06T00:22:42.000Z,10.00
2023-01-06T00:25:10.511Z,10.00
2023-01-06T00:27:38.758Z,10.00
2023-01-06T00:30:07.103Z,10.00
2023-01-06T00:32:34.427Z,10.00
2023-01-06T00:35:01.174Z,10.00
2023-01-06T00:37:27.990Z,10.10
2023-01-06T00:39:54.615Z,10.10
2023-01-06T00:42:22.430Z,10.10
2023-01-06T00:44:49.397Z,10.10
2023-01-06T00:47:16.330Z,10.10
2023-01-06T00:49:43.031Z,10.10
2023-01-06T00:52:10.190Z,10.00
2023-01-06T00:54:37.313Z,10.00
2023-01-06T00:57:06.506Z,10.00
2023-01-06T00:59:33.374Z,10.10
2023-01-06T01:02:00.085Z,10.10
2023-01-06T01:04:27.262Z,10.10
2023-01-06T01:06:54.796Z,10.10
2023-01-06T01:09:24.879Z,10.10
2023-01-06T01:12:09.800Z,10.20
2023-01-06T01:14:44.827Z,10.10
2023-01-06T01:17:12.909Z,10.10
2023-01-06T01:19:39.953Z,10.10
2023-01-06T01:22:07.689Z,10.00
2023-01-06T01:24:35.126Z,10.00
2023-01-06T01:27:01.828Z,10.10
2023-01-06T01:29:28.487Z,10.10
2023-01-06T01:31:55.384Z,10.10
2023-01-06T01:34:23.171Z,10.10
2023-01-06T01:36:52.154Z,10.10
2023-01-06T01:39:21.771Z,10.10
2023-01-06T01:41:49.170Z,10.10
2023-01-06T01:44:46.945Z,10.00
2023-01-06T01:47:19.970Z,10.00
2023-01-06T01:49:49.156Z,10.00
2023-01-06T01:52:17.537Z,10.00
2023-01-06T01:54:46.049Z,10.00
2023-01-06T01:57:18.934Z,10.00
2023-01-06T01:59:46.507Z,10.00
2023-01-06T02:02:18.032Z,10.00
2023-01-06T02:04:48.355Z,10.00
2023-01-06T02:07:15.013Z,10.00
2023-01-06T02:10:04.286Z,10.00
2023-01-06T02:12:31.369Z,10.10
2023-01-06T02:14:57.993Z,10.10
2023-01-06T02:17:44.094Z,10.10
2023-01-06T02:20:24.900Z,10.10
2023-01-06T02:23:00.387Z,10.10
2023-01-06T02:25:35.909Z,10.10
2023-01-06T02:28:08.282Z,10.10
2023-01-06T02:31:12.631Z,10.10
2023-01-06T02:33:52.725Z,10.10
2023-01-06T02:36:45.096Z,10.10
2023-01-06T02:39:30.346Z,10.10
2023-01-06T02:42:12.545Z,10.10
2023-01-06T02:45:03.487Z,10.10
2023-01-06T02:47:42.631Z,10.10
2023-01-06T02:50:23.408Z,10.10
2023-01-06T02:53:21.394Z,10.10
2023-01-06T02:55:51.080Z,10.10
2023-01-06T02:58:36.747Z,10.10
2023-01-06T03:01:12.153Z,10.10
2023-01-06T03:03:42.248Z,10.10
2023-01-06T03:06:19.137Z,10.10
2023-01-06T03:08:48.544Z,10.10
2023-01-06T03:11:15.429Z,10.10
2023-01-06T03:13:50.412Z,10.10
2023-01-06T03:16:17.486Z,10.10
2023-01-06T03:18:47.492Z,10.00
2023-01-06T03:21:18.324Z,10.00
2023-01-06T03:23:46.679Z,10.00
2023-01-06T03:26:13.762Z,10.10
2023-01-06T03:28:40.443Z,10.00
2023-01-06T03:31:28.425Z,10.00
2023-01-06T03:34:26.760Z,10.00
2023-01-06T03:37:02.530Z,10.00
2023-01-06T03:39:45.327Z,10.00
2023-01-06T03:42:43.544Z,10.00
2023-01-06T03:45:42.547Z,9.90
2023-01-06T03:48:32.861Z,9.90
2023-01-06T03:51:12.667Z,10.00
2023-01-06T03:53:46.560Z,9.90
2023-01-06T03:56:28.920Z,10.00
2023-01-06T03:58:59.769Z,10.00
2023-01-06T04:01:27.637Z,10.00
2023-01-06T04:03:55.504Z,9.90
2023-01-06T04:06:22.995Z,10.00
2023-01-06T04:08:49.806Z,10.00
2023-01-06T04:11:35.214Z,9.90
2023-01-06T04:14:01.847Z,9.90
2023-01-06T04:16:28.530Z,9.90
2023-01-06T04:18:55.432Z,9.90
2023-01-06T04:21:22.103Z,9.90
2023-01-06T04:23:48.701Z,9.90
2023-01-06T04:26:15.320Z,9.90
2023-01-06T04:28:41.932Z,9.90
2023-01-06T04:31:10.062Z,9.90
2023-01-06T04:33:36.755Z,9.90
2023-01-06T04:36:04.155Z,9.90
2023-01-06T04:38:30.880Z,9.90
2023-01-06T04:40:57.477Z,9.90
2023-01-06T04:43:24.297Z,9.90
2023-01-06T04:45:50.997Z,9.90
2023-01-06T04:48:17.753Z,9.90
2023-01-06T04:50:44.390Z,9.90
2023-01-06T04:53:12.195Z,9.90
2023-01-06T04:55:39.717Z,9.90
2023-01-06T04:58:06.853Z,9.90
2023-01-06T05:00:33.555Z,10.00
2023-01-06T05:03:00.221Z,10.00
2023-01-06T05:05:26.870Z,10.00
2023-01-06T05:07:54.886Z,9.90
2023-01-06T05:10:21.604Z,9.90
2023-01-06T05:12:48.190Z,9.90
2023-01-06T05:15:14.918Z,9.90
2023-01-06T05:17:41.604Z,9.90
2023-01-06T05:20:08.778Z,9.90
2023-01-06T05:22:35.415Z,9.90
2023-01-06T05:25:02.257Z,9.90
2023-01-06T05:27:28.997Z,10.00
2023-01-06T05:29:55.646Z,10.00
2023-01-06T05:32:22.323Z,10.00
2023-01-06T05:34:49.045Z,9.90
2023-01-06T05:37:15.653Z,9.90
2023-01-06T05:39:42.343Z,9.90
2023-01-06T05:42:09.002Z,10.00
2023-01-06T05:44:35.604Z,10.00
2023-01-06T05:47:02.193Z,10.00
2023-01-06T05:49:28.791Z,10.00
2023-01-06T05:51:55.434Z,10.00
2023-01-06T05:54:22.086Z,10.10
2023-01-06T05:56:48.760Z,10.30
2023-01-06T05:59:15.465Z,10.10
2023-01-06T06:01:42.152Z,10.00
2023-01-06T06:04:08.877Z,10.10
2023-01-06T06:06:35.547Z,10.10
2023-01-06T06:09:05.357Z,10.20
2023-01-06T06:11:31.990Z,10.10
2023-01-06T06:13:58.761Z,10.10
2023-01-06T06:16:27.912Z,10.10
2023-01-06T06:18:58.154Z,10.00
2023-01-06T06:21:27.246Z,10.00
2023-01-06T06:23:55.414Z,10.00
2023-01-06T06:26:23.023Z,10.00
2023-01-06T06:28:49.759Z,10.10
2023-01-06T06:31:20.402Z,10.10
2023-01-06T06:33:53.547Z,10.00
2023-01-06T06:36:20.797Z,10.00
2023-01-06T06:38:50.307Z,10.00
2023-01-06T06:41:17.090Z,10.00
2023-01-06T06:43:43.963Z,9.90
2023-01-06T06:46:11.498Z,10.00
2023-01-06T06:48:38.202Z,10.00
2023-01-06T06:51:19.131Z,9.90
2023-01-06T06:53:46.602Z,9.90
2023-01-06T06:56:16.721Z,9.90
2023-01-06T06:58:43.902Z,9.80
2023-01-06T07:01:12.837Z,9.80
2023-01-06T07:03:40.006Z,9.70
2023-01-06T07:06:09.049Z,9.70
2023-01-06T07:08:35.741Z,9.60
2023-01-06T07:11:02.687Z,9.60
2023-01-06T07:13:29.444Z,9.50
2023-01-06T07:15:56.362Z,9.50
2023-01-06T07:18:23.067Z,9.50
2023-01-06T07:20:53.491Z,9.50
2023-01-06T07:23:20.876Z,9.50
2023-01-06T07:25:55.294Z,9.50
2023-01-06T07:28:21.954Z,9.50
2023-01-06T07:30:48.918Z,9.40
2023-01-06T07:33:15.603Z,9.40
2023-01-06T07:35:42.537Z,9.40
2023-01-06T07:38:10.236Z,9.40
2023-01-06T07:40:37.235Z,9.40
2023-01-06T07:43:11.135Z,9.40
2023-01-06T07:45:37.984Z,9.40
2023-01-06T07:48:04.753Z,9.50
2023-01-06T07:50:31.927Z,9.50
2023-01-06T07:52:59.868Z,9.50
2023-01-06T07:55:27.035Z,9.50
2023-01-06T07:57:54.254Z,9.50
2023-01-06T08:00:21.542Z,9.50
2023-01-06T08:02:48.753Z,9.50
2023-01-06T08:05:15.730Z,9.50
2023-01-06T08:07:42.485Z,9.50
2023-01-06T08:10:09.599Z,9.50
2023-01-06T08:12:37.063Z,9.60
2023-01-06T08:15:04.676Z,9.50
2023-01-06T08:17:31.459Z,9.50
2023-01-06T08:19:58.144Z,9.50
2023-01-06T08:22:25.252Z,9.50
2023-01-06T08:24:51.879Z,9.60
2023-01-06T08:27:20.459Z,9.60
2023-01-06T08:29:47.933Z,9.60
2023-01-06T08:32:14.643Z,9.70
2023-01-06T08:34:41.297Z,9.70
2023-01-06T08:37:08.089Z,9.70
2023-01-06T08:39:34.808Z,9.80
2023-01-06T08:42:01.451Z,9.70
2023-01-06T08:44:28.151Z,9.70
2023-01-06T08:46:54.875Z,9.70
2023-01-06T08:49:21.549Z,9.80
2023-01-06T08:51:48.232Z,9.70
2023-01-06T08:54:14.985Z,9.70
2023-01-06T08:56:43.507Z,9.70
2023-01-06T08:59:14.016Z,9.60
2023-01-06T09:01:41.413Z,9.60
2023-01-06T09:04:09.353Z,9.50
2023-01-06T09:06:37.060Z,9.60
2023-01-06T09:09:06.256Z,9.60
2023-01-06T09:11:33.201Z,9.90
2023-01-06T09:14:00.124Z,10.10
2023-01-06T09:16:26.835Z,10.10
2023-01-06T09:18:53.519Z,10.20
2023-01-06T09:21:22.759Z,10.30
2023-01-06T09:23:49.824Z,10.60
2023-01-06T09:26:18.173Z,10.80
2023-01-06T09:28:45.166Z,10.80
2023-01-06T09:31:12.189Z,10.90
2023-01-06T09:33:39.778Z,11.00
2023-01-06T09:36:07.240Z,11.10
2023-01-06T09:38:33.889Z,11.40
2023-01-06T09:41:31.650Z,11.80
2023-01-06T09:44:18.523Z,11.80
2023-01-06T09:46:48.668Z,12.10
2023-01-06T09:49:21.172Z,12.10
2023-01-06T09:51:48.535Z,12.00
2023-01-06T09:54:23.685Z,12.10
2023-01-06T09:56:59.045Z,12.20
2023-01-06T09:59:30.376Z,12.10
2023-01-06T10:01:59.710Z,12.00
2023-01-06T10:04:29.589Z,12.00
2023-01-06T10:07:21.214Z,11.80
2023-01-06T10:10:03.145Z,11.50
2023-01-06T10:12:48.622Z,11.50
2023-01-06T10:15:25.951Z,11.50
2023-01-06T10:18:17.509Z,11.30
2023-01-06T10:20:53.023Z,11.70
2023-01-06T10:23:25.703Z,11.60
2023-01-06T10:26:04.433Z,11.40
2023-01-06T10:28:43.228Z,11.30
2023-01-06T10:31:17.460Z,11.20
2023-01-06T10:33:51.053Z,11.00
2023-01-06T10:36:29.116Z,11.20
2023-01-06T10:38:56.813Z,11.30
2023-01-06T10:42:20.507Z,11.00
2023-01-06T10:44:47.163Z,11.00
2023-01-06T10:47:34.035Z,11.10
2023-01-06T10:50:01.101Z,11.20
2023-01-06T10:52:28.517Z,11.30
2023-01-06T10:55:04.584Z,11.10
2023-01-06T10:57:35.892Z,11.20
2023-01-06T11:00:08.699Z,10.90
2023-01-06T11:02:35.649Z,10.90
2023-01-06T11:05:02.601Z,11.20
2023-01-06T11:07:30.325Z,11.40
2023-01-06T11:09:57.831Z,11.70
2023-01-06T11:12:28.571Z,11.80
2023-01-06T11:15:00.572Z,12.10
2023-01-06T11:17:28.375Z,12.00
2023-01-06T11:20:13.190Z,11.90
2023-01-06T11:22:42.060Z,11.80
2023-01-06T11:25:20.981Z,11.70
2023-01-06T11:28:11.333Z,11.50
2023-01-06T11:30:42.560Z,11.40
2023-01-06T11:33:20.892Z,11.40
2023-01-06T11:35:48.491Z,11.40
2023-01-06T11:38:17.843Z,11.40
2023-01-06T11:40:47.863Z,11.20
2023-01-06T11:43:25.597Z,11.20
2023-01-06T11:45:58.485Z,11.30
2023-01-06T11:48:30.038Z,11.80
2023-01-06T11:51:03.023Z,11.20
2023-01-06T11:53:30.141Z,11.20
2023-01-06T11:56:02.368Z,11.00
2023-01-06T11:59:08.810Z,11.10
2023-01-06T12:02:13.425Z,11.00
2023-01-06T12:04:48.456Z,11.00
2023-01-06T12:07:25.211Z,10.80
2023-01-06T12:09:53.617Z,10.90
2023-01-06T12:12:23.358Z,10.80
2023-01-06T12:14:50.034Z,10.80
2023-01-06T12:17:32.544Z,10.80
2023-01-06T12:20:05.822Z,10.80
2023-01-06T12:22:54.915Z,10.60
2023-01-06T12:25:55.578Z,10.60
2023-01-06T12:28:29.876Z,10.50
2023-01-06T12:31:05.681Z,10.40
2023-01-06T12:33:55.662Z,10.40
2023-01-06T12:36:40.875Z,10.40
2023-01-06T12:39:25.422Z,10.40
2023-01-06T12:42:00.770Z,10.30
2023-01-06T12:44:47.854Z,10.30
2023-01-06T12:47:39.096Z,10.30
2023-01-06T12:50:22.343Z,10.40
2023-01-06T12:52:59.895Z,10.50
2023-01-06T12:56:10.046Z,10.50
2023-01-06T12:58:48.575Z,10.50
2023-01-06T13:01:21.663Z,10.60
2023-01-06T13:04:05.237Z,10.60
2023-01-06T13:07:16.368Z,10.60
2023-01-06T13:10:04.401Z,10.60
2023-01-06T13:12:41.210Z,10.50
2023-01-06T13:15:25.996Z,10.50
2023-01-06T13:18:13.949Z,10.40
2023-01-06T13:20:59.254Z,10.40
2023-01-06T13:23:42.761Z,10.30
2023-01-06T13:26:34.126Z,10.20
2023-01-06T13:29:18.086Z,10.30
2023-01-06T13:31:47.446Z,10.20
2023-01-06T13:34:52.110Z,10.20
2023-01-06T13:38:17.159Z,10.10
2023-01-06T13:40:45.027Z,10.10
2023-01-06T13:43:30.509Z,10.00
2023-01-06T13:46:04.869Z,10.00
2023-01-06T13:48:35.925Z,9.90
2023-01-06T13:51:06.692Z,10.00
2023-01-06T13:53:38.753Z,9.80
2023-01-06T13:56:14.317Z,9.90
2023-01-06T13:58:44.639Z,9.80
2023-01-06T14:01:20.380Z,9.80
2023-01-06T14:03:49.357Z,9.80
2023-01-06T14:06:21.672Z,9.90
2023-01-06T14:08:51.382Z,9.80
2023-01-06T14:11:23.334Z,9.70
2023-01-06T14:13:53.802Z,9.70
2023-01-06T14:16:21.355Z,9.60
2023-01-06T14:19:04.748Z,9.60
2023-01-06T14:21:31.799Z,9.60
2023-01-06T14:24:06.140Z,9.60
2023-01-06T14:26:51.586Z,9.60
2023-01-06T14:29:40.557Z,9.50
2023-01-06T14:32:09.036Z,9.50
2023-01-06T14:34:44.086Z,9.50
2023-01-06T14:37:13.984Z,9.50
2023-01-06T14:39:46.619Z,9.50
2023-01-06T14:42:28.362Z,9.40
2023-01-06T14:45:00.213Z,9.40
2023-01-06T14:47:34.737Z,9.30
2023-01-06T14:50:05.809Z,9.40
2023-01-06T14:52:39.501Z,9.40
2023-01-06T14:55:15.326Z,9.30
2023-01-06T14:57:41.942Z,9.30
2023-01-06T15:00:11.700Z,9.20
2023-01-06T15:02:45.224Z,9.20
2023-01-06T15:05:28.462Z,9.20
2023-01-06T15:07:56.517Z,9.10
2023-01-06T15:10:23.974Z,9.10
2023-01-06T15:12:57.020Z,9.10
2023-01-06T15:15:27.087Z,9.00
2023-01-06T15:17:55.812Z,9.10
2023-01-06T15:20:29.570Z,9.00
2023-01-06T15:22:56.521Z,9.00
2023-01-06T15:25:26.081Z,8.90
2023-01-06T15:27:55.339Z,8.80
2023-01-06T15:30:25.052Z,8.80
2023-01-06T15:32:52.773Z,8.80
2023-01-06T15:35:26.474Z,8.70
2023-01-06T15:38:00.588Z,8.70
2023-01-06T15:40:28.833Z,8.60
2023-01-06T15:42:55.725Z,8.60
2023-01-06T15:45:32.414Z,8.60
2023-01-06T15:48:08.171Z,8.60
2023-01-06T15:50:35.692Z,8.60
2023-01-06T15:53:13.795Z,8.50
2023-01-06T15:55:43.432Z,8.50
2023-01-06T15:58:23.709Z,8.50
2023-01-06T16:00:59.872Z,8.40
2023-01-06T16:03:28.865Z,8.40
2023-01-06T16:06:12.427Z,8.30
2023-01-06T16:08:41.209Z,8.40
2023-01-06T16:11:47.662Z,8.30
2023-01-06T16:14:27.253Z,8.40
2023-01-06T16:17:00.979Z,8.30
2023-01-06T16:19:27.698Z,8.30
2023-01-06T16:21:55.371Z,8.30
2023-01-06T16:24:27.279Z,8.30
2023-01-06T16:27:05.924Z,8.20
2023-01-06T16:29:38.026Z,8.20
2023-01-06T16:32:33.656Z,8.20
2023-01-06T16:35:10.630Z,8.10
2023-01-06T16:37:37.385Z,8.10
2023-01-06T16:40:04.524Z,8.10
2023-01-06T16:42:39.474Z,8.10
2023-01-06T16:45:09.073Z,8.10
2023-01-06T16:47:35.986Z,8.10
2023-01-06T16:50:16.674Z,8.10
2023-01-06T16:52:45.203Z,8.10
2023-01-06T16:55:16.578Z,8.10
2023-01-06T16:57:47.674Z,8.10
2023-01-06T17:00:17.238Z,8.10
2023-01-06T17:02:44.384Z,8.10
2023-01-06T17:05:31.470Z,8.10
2023-01-06T17:08:02.338Z,8.10
2023-01-06T17:10:29.845Z,8.00
2023-01-06T17:13:19.894Z,8.10
2023-01-06T17:15:50.616Z,8.00
2023-01-06T17:18:26.606Z,8.00
2023-01-06T17:21:08.781Z,8.00
2023-01-06T17:23:42.506Z,7.90
2023-01-06T17:26:15.139Z,7.90
2023-01-06T17:28:43.192Z,7.90
2023-01-06T17:31:21.215Z,7.80
2023-01-06T17:33:47.950Z,7.80
2023-01-06T17:36:28.328Z,7.80
2023-01-06T17:38:54.989Z,7.80
2023-01-06T17:41:21.798Z,7.80
2023-01-06T17:43:50.656Z,7.70
2023-01-06T17:46:35.535Z,7.80
2023-01-06T17:49:22.435Z,7.70
2023-01-06T17:51:49.753Z,7.70
2023-01-06T17:54:37.696Z,7.70
2023-01-06T17:57:21.066Z,7.70
2023-01-06T17:59:53.408Z,7.70
2023-01-06T18:02:23.127Z,7.70
2023-01-06T18:04:50.941Z,7.70
2023-01-06T18:07:17.632Z,7.80
2023-01-06T18:09:45.844Z,7.80
2023-01-06T18:12:15.973Z,7.80
2023-01-06T18:14:45.538Z,7.80
2023-01-06T18:17:21.219Z,7.80
2023-01-06T18:19:47.805Z,7.80
2023-01-06T18:22:21.260Z,7.80
2023-01-06T18:24:50.682Z,7.80
2023-01-06T18:27:23.842Z,7.80
2023-01-06T18:29:51.517Z,7.80
2023-01-06T18:32:21.202Z,7.80
2023-01-06T18:34:52.913Z,7.80
2023-01-06T18:37:27.994Z,7.80
2023-01-06T18:40:00.254Z,7.90
2023-01-06T18:42:49.453Z,7.90
2023-01-06T18:45:27.719Z,7.90
2023-01-06T18:48:01.649Z,7.90
2023-01-06T18:50:28.334Z,7.90
2023-01-06T18:52:56.848Z,7.90
2023-01-06T18:55:25.907Z,7.80
2023-01-06T18:58:21.987Z,7.80
2023-01-06T19:00:53.941Z,7.80
2023-01-06T19:03:23.426Z,7.80
2023-01-06T19:05:54.052Z,7.80
2023-01-06T19:08:31.471Z,7.80
2023-01-06T19:10:58.160Z,7.80
2023-01-06T19:13:28.560Z,7.80
2023-01-06T19:16:02.224Z,7.80
2023-01-06T19:18:33.499Z,7.80
2023-01-06T19:21:03.348Z,7.80
2023-01-06T19:23:31.779Z,7.70
2023-01-06T19:26:04.898Z,7.70
2023-01-06T19:28:34.471Z,7.70
2023-01-06T19:31:02.985Z,7.60
2023-01-06T19:33:35.695Z,7.60
2023-01-06T19:36:24.899Z,7.70
2023-01-06T19:38:51.820Z,7.70
2023-01-06T19:41:23.820Z,7.70
2023-01-06T19:43:51.972Z,7.70
2023-01-06T19:46:29.870Z,7.70
2023-01-06T19:48:56.872Z,7.70
2023-01-06T19:51:33.998Z,7.60
2023-01-06T19:54:04.424Z,7.70
2023-01-06T19:56:35.116Z,7.60
2023-01-06T19:59:12.061Z,7.70
2023-01-06T20:01:38.869Z,7.60
2023-01-06T20:04:29.871Z,7.60
2023-01-06T20:06:56.625Z,7.50
2023-01-06T20:09:23.311Z,7.50
2023-01-06T20:11:53.144Z,7.50
2023-01-06T20:14:20.434Z,7.50
2023-01-06T20:16:47.890Z,7.40
2023-01-06T20:19:15.886Z,7.40
2023-01-06T20:21:43.304Z,7.40
2023-01-06T20:24:11.130Z,7.30
2023-01-06T20:26:37.792Z,7.30
2023-01-06T20:29:04.776Z,7.30
2023-01-06T20:31:32.240Z,7.30
2023-01-06T20:33:59.426Z,7.30
2023-01-06T20:36:26.355Z,7.20
2023-01-06T20:38:53.085Z,7.20
2023-01-06T20:41:19.786Z,7.20
2023-01-06T20:43:46.510Z,7.20
2023-01-06T20:46:14.544Z,7.20
2023-01-06T20:48:41.340Z,7.30
2023-01-06T20:51:08.729Z,7.40
2023-01-06T20:53:35.685Z,7.40
2023-01-06T20:56:02.389Z,7.50
2023-01-06T20:58:29.028Z,7.40
2023-01-06T21:00:55.865Z,7.50
2023-01-06T21:03:22.656Z,7.50
2023-01-06T21:05:49.421Z,7.60
2023-01-06T21:08:16.100Z,7.70
2023-01-06T21:10:42.710Z,7.70
2023-01-06T21:13:09.355Z,7.80
2023-01-06T21:15:36.003Z,7.80
2023-01-06T21:18:02.638Z,7.80
2023-01-06T21:20:29.720Z,7.80
2023-01-06T21:22:56.314Z,7.90
2023-01-06T21:25:24.657Z,7.90
2023-01-06T21:27:51.294Z,7.90
2023-01-06T21:30:18.121Z,8.00
2023-01-06T21:32:44.751Z,8.10
2023-01-06T21:35:11.417Z,8.20
2023-01-06T21:37:38.036Z,8.20
2023-01-06T21:40:08.073Z,8.30
2023-01-06T21:42:53.653Z,8.40
2023-01-06T21:45:20.294Z,8.50
2023-01-06T21:47:46.967Z,8.60
2023-01-06T21:50:13.652Z,8.60
2023-01-06T21:52:40.332Z,8.70
2023-01-06T21:55:07.523Z,8.70
2023-01-06T21:57:37.598Z,8.80
2023-01-06T22:00:06.737Z,8.80
2023-01-06T22:02:33.544Z,8.80
2023-01-06T22:05:00.246Z,8.90
2023-01-06T22:07:28.535Z,8.90
2023-01-06T22:09:57.175Z,8.90
2023-01-06T22:12:24.299Z,9.00
2023-01-06T22:14:52.822Z,9.00
2023-01-06T22:17:20.277Z,9.00
2023-01-06T22:19:48.598Z,9.00
2023-01-06T22:22:15.801Z,9.10
2023-01-06T22:24:42.570Z,9.10
2023-01-06T22:27:09.927Z,9.20
2023-01-06T22:29:36.530Z,9.10
2023-01-06T22:32:05.285Z,9.10
2023-01-06T22:34:32.452Z,9.20
2023-01-06T22:36:59.141Z,9.20
2023-01-06T22:39:25.846Z,9.20
2023-01-06T22:41:53.894Z,9.20
2023-01-06T22:44:20.880Z,9.30
2023-01-06T22:46:47.549Z,9.30
2023-01-06T22:49:15.019Z,9.40
2023-01-06T22:51:41.792Z,9.30
2023-01-06T22:54:08.457Z,9.30
2023-01-06T22:56:35.394Z,9.30
2023-01-06T22:59:02.252Z,9.40
2023-01-06T23:01:28.950Z,9.40
2023-01-06T23:03:55.635Z,9.40
2023-01-06T23:06:22.387Z,9.30
2023-01-06T23:08:59.758Z,9.40
2023-01-06T23:11:28.359Z,9.30
2023-01-06T23:13:56.991Z,9.40
2023-01-06T23:16:26.154Z,9.40
2023-01-06T23:18:53.247Z,9.40
2023-01-06T23:21:22.546Z,9.40
2023-01-06T23:23:50.445Z,9.40
2023-01-06T23:26:21.952Z,9.40
2023-01-06T23:28:48.960Z,9.50
2023-01-06T23:31:18.911Z,9.50
2023-01-06T23:33:48.659Z,9.50
2023-01-06T23:36:18.004Z,9.50
2023-01-06T23:38:45.000Z,9.50
2023-01-06T23:41:14.009Z,9.50
2023-01-06T23:43:41.135Z,9.50
2023-01-06T23:46:10.442Z,9.50
2023-01-06T23:48:37.894Z,9.50
2023-01-06T23:51:05.800Z,9.60
2023-01-06T23:53:33.271Z,9.60
2023-01-06T23:56:04.837Z,9.50
2023-01-06T23:58:34.678Z,9.60
